Current Weather



TAF Data Links

METAR Data Links

Latest METAR/TAF Data


Available data for KAUS from the past 2 hours
AUSTIN, TX
Metar
KAUS 220214Z 00000KT 10SM BKN026 BKN036 OVC048 22/18 A2994 RMK AO2 T02220183 $

02:14 UTC

Wind: 0° 0kt

Visibility: 10 SM

Sky: BKN 2600 ft

Temp: 22 deg C / 71.6 deg F

Dewpoint: 18 deg C / 64.4 deg F

Pressure: 29.94 inHg

TAF
KAUS 220201Z 2202/2306 16009KT P6SM BKN040 FM220600 17006KT P6SM BKN015 FM221200 18004KT 5SM BR VCSH OVC008 FM221500 35012KT 6SM SHRA BR OVC010 FM230000 35011KT P6SM SCT020


Available data for KEDC from the past 2 hours
AUSTIN EXEC, TX
Metar
KEDC 220235Z AUTO 14007KT 10SM FEW016 OVC025 22/20 A2995 RMK AO2

02:35 UTC

Wind: 140° 7kt

Visibility: 10 SM

Sky: FEW 1600 ft

Temp: 22 deg C / 71.6 deg F

Dewpoint: 20 deg C / 68 deg F

Pressure: 29.95 inHg



Available data for KRYW from the past 2 hours
LAGO VISTA, TX
Metar
KRYW 220235Z AUTO 15008KT 10SM OVC041 22/18 A2995 RMK AO2 T02150175

02:35 UTC

Wind: 150° 8kt

Visibility: 10 SM

Sky: OVC 4100 ft

Temp: 22 deg C / 71.6 deg F

Dewpoint: 18 deg C / 64.4 deg F

Pressure: 29.95 inHg